Time;durP1;ratioP1;P1;durP2;ratioP2;P2;SDS_P1;SDS_P2;PMS_P1;PMS_P2;Temp;Humidity;BMP_temperature;BMP_pressure;BME280_temperature;BME280_humidity;BME280_pressure;Samples;Min_cycle;Max_cycle;Signal;HPM_P1;HPM_P2
2021/05/05 00:02:21;;;;;;;26.10;3.60;;;8.60;99.90;;;;;;5085124;28;20417;-75
2021/05/05 00:04:47;;;;;;;23.77;3.72;;;8.60;99.90;;;;;;5079576;28;20452;-74
2021/05/05 00:07:13;;;;;;;22.83;3.70;;;8.60;99.90;;;;;;5084184;28;20423;-74
2021/05/05 00:09:40;;;;;;;25.17;4.30;;;8.60;99.90;;;;;;5082868;28;20427;-75
2021/05/05 00:12:07;;;;;;;31.33;4.30;;;8.60;99.90;;;;;;5083613;28;20434;-74
2021/05/05 00:14:34;;;;;;;24.85;4.00;;;8.60;99.90;;;;;;5084518;28;20434;-74
2021/05/05 00:17:00;;;;;;;28.25;4.40;;;8.60;99.90;;;;;;5079946;28;20531;-73
2021/05/05 00:19:27;;;;;;;23.92;4.40;;;8.60;99.90;;;;;;5086395;28;20418;-74
2021/05/05 00:21:53;;;;;;;26.30;4.27;;;8.60;99.90;;;;;;5087754;28;20513;-74
2021/05/05 00:24:20;;;;;;;26.65;4.22;;;8.60;99.90;;;;;;5087066;28;20425;-74
2021/05/05 00:26:46;;;;;;;21.20;3.80;;;8.60;99.90;;;;;;5088314;28;20981;-75
2021/05/05 00:29:13;;;;;;;22.63;3.60;;;8.60;99.90;;;;;;5084674;28;20917;-74
2021/05/05 00:31:40;;;;;;;18.27;3.40;;;8.60;99.80;;;;;;5086079;28;20422;-74
2021/05/05 00:34:07;;;;;;;19.48;3.33;;;8.60;99.60;;;;;;5083802;28;20901;-74
2021/05/05 00:36:33;;;;;;;18.25;2.90;;;8.60;99.90;;;;;;5082589;28;20442;-74
2021/05/05 00:39:00;;;;;;;19.10;3.35;;;8.60;99.90;;;;;;5084615;28;20417;-73
2021/05/05 00:41:26;;;;;;;19.33;3.42;;;8.50;99.90;;;;;;5084863;28;20444;-74
2021/05/05 00:43:53;;;;;;;19.73;3.60;;;8.50;99.90;;;;;;5087176;28;20434;-75
2021/05/05 00:46:19;;;;;;;27.48;3.92;;;8.40;99.90;;;;;;5084233;28;20422;-74
2021/05/05 00:48:46;;;;;;;24.77;3.97;;;8.30;99.90;;;;;;5082955;28;20421;-73
2021/05/05 00:51:13;;;;;;;27.47;4.17;;;8.30;99.90;;;;;;5085555;28;20425;-75
2021/05/05 00:53:40;;;;;;;29.50;4.85;;;8.30;99.90;;;;;;5082354;28;20427;-72
2021/05/05 00:56:07;;;;;;;30.65;4.70;;;8.20;99.90;;;;;;5082305;28;20445;-73
2021/05/05 00:58:35;;;;;;;22.77;4.00;;;8.20;99.90;;;;;;5078850;28;20425;-73
2021/05/05 01:01:03;;;;;;;24.02;3.67;;;8.20;99.90;;;;;;5086046;28;20470;-73
2021/05/05 01:03:30;;;;;;;23.47;3.87;;;8.20;99.90;;;;;;5086947;28;20429;-72
2021/05/05 01:05:57;;;;;;;26.00;3.60;;;8.10;99.90;;;;;;5088735;28;20429;-72
2021/05/05 01:08:24;;;;;;;34.63;4.47;;;8.10;99.90;;;;;;5085472;28;20894;-73
2021/05/05 01:10:51;;;;;;;23.98;4.00;;;8.20;99.90;;;;;;5086617;28;20459;-73
2021/05/05 01:13:20;;;;;;;25.13;3.72;;;8.20;99.90;;;;;;5083245;28;20435;-73
2021/05/05 01:15:48;;;;;;;19.98;3.38;;;8.30;99.90;;;;;;5082119;28;20907;-75
2021/05/05 01:18:15;;;;;;;22.80;3.60;;;8.30;99.90;;;;;;5087122;28;21238;-74
2021/05/05 01:20:41;;;;;;;16.15;2.58;;;8.30;99.90;;;;;;5085568;28;20744;-75
2021/05/05 01:23:08;;;;;;;12.05;2.10;;;8.30;99.40;;;;;;5086641;28;20448;-72
2021/05/05 01:25:35;;;;;;;12.90;2.08;;;8.30;98.60;;;;;;5081826;28;20786;-75
2021/05/05 01:28:03;;;;;;;16.00;2.60;;;8.30;97.80;;;;;;5085518;28;20568;-72
2021/05/05 01:30:30;;;;;;;14.77;2.97;;;8.20;96.90;;;;;;5086449;28;20906;-72
2021/05/05 01:32:56;;;;;;;15.15;3.03;;;8.30;96.60;;;;;;5087711;28;20447;-73
2021/05/05 01:35:25;;;;;;;19.67;3.53;;;8.30;96.60;;;;;;5087456;28;20414;-74
2021/05/05 01:37:53;;;;;;;17.58;3.30;;;8.30;97.10;;;;;;5086649;28;20548;-74
2021/05/05 01:40:24;;;;;;;25.10;4.00;;;8.30;97.50;;;;;;5087248;28;20491;-71
2021/05/05 01:42:52;;;;;;;22.65;3.90;;;8.30;98.00;;;;;;5086129;28;20770;-74
2021/05/05 01:45:19;;;;;;;21.85;4.03;;;8.30;98.10;;;;;;5084789;28;20417;-73
2021/05/05 01:47:46;;;;;;;20.30;3.85;;;8.40;98.60;;;;;;5083806;28;20959;-72
2021/05/05 01:50:14;;;;;;;15.77;2.90;;;8.40;99.10;;;;;;5082319;28;20432;-75
2021/05/05 01:52:41;;;;;;;14.15;2.50;;;8.30;99.50;;;;;;5086285;28;21018;-73
2021/05/05 01:55:09;;;;;;;17.13;2.60;;;8.30;99.30;;;;;;5081689;28;20924;-72
2021/05/05 01:57:43;;;;;;;11.52;2.40;;;8.30;98.80;;;;;;5082003;28;20513;-73
2021/05/05 02:00:19;;;;;;;15.38;2.80;;;8.20;99.10;;;;;;5083442;28;20427;-72
2021/05/05 02:02:52;;;;;;;21.08;2.90;;;8.20;98.80;;;;;;5084468;28;20425;-72
2021/05/05 02:05:26;;;;;;;19.08;3.17;;;8.20;98.70;;;;;;5083882;28;20764;-72
2021/05/05 02:08:00;;;;;;;17.92;3.45;;;8.10;98.70;;;;;;5085196;28;20500;-73
2021/05/05 02:10:27;;;;;;;25.67;3.83;;;8.10;99.00;;;;;;5083547;28;20444;-72
2021/05/05 02:12:54;;;;;;;26.90;3.70;;;8.10;99.30;;;;;;5085027;28;20436;-72
2021/05/05 02:15:24;;;;;;;29.75;4.28;;;8.10;99.60;;;;;;5084581;28;20413;-72
2021/05/05 02:17:55;;;;;;;30.95;4.65;;;8.20;99.70;;;;;;5085864;28;20418;-72
2021/05/05 02:20:24;;;;;;;28.73;4.53;;;8.20;99.60;;;;;;5085073;28;20477;-71
2021/05/05 02:22:51;;;;;;;25.70;4.38;;;8.20;98.80;;;;;;5086268;28;20542;-73
2021/05/05 02:25:18;;;;;;;28.10;4.05;;;8.20;98.00;;;;;;5084460;28;20472;-73
2021/05/05 02:27:45;;;;;;;22.80;3.63;;;8.30;97.40;;;;;;5085098;28;20789;-73
2021/05/05 02:30:21;;;;;;;29.90;3.85;;;8.30;96.40;;;;;;5082999;28;20461;-73
2021/05/05 02:32:52;;;;;;;25.88;3.78;;;8.30;95.90;;;;;;5082231;28;20418;-73
2021/05/05 02:35:20;;;;;;;26.90;4.65;;;8.30;96.00;;;;;;5082117;28;20433;-74
2021/05/05 02:37:48;;;;;;;32.03;4.10;;;8.40;96.50;;;;;;5083318;28;20418;-73
2021/05/05 02:40:16;;;;;;;35.78;4.68;;;8.40;96.90;;;;;;5080603;28;20425;-74
2021/05/05 02:42:43;;;;;;;27.98;4.82;;;8.40;97.00;;;;;;5085737;28;20445;-72
2021/05/05 02:45:11;;;;;;;31.23;4.50;;;8.40;97.10;;;;;;5082495;28;20425;-74
2021/05/05 02:47:39;;;;;;;25.80;4.30;;;8.50;97.10;;;;;;5082925;28;20457;-75
2021/05/05 02:50:07;;;;;;;28.50;4.15;;;8.50;97.10;;;;;;5082430;28;20445;-74
2021/05/05 02:52:33;;;;;;;30.70;4.47;;;8.50;96.70;;;;;;5084303;28;20528;-74
2021/05/05 02:55:00;;;;;;;29.65;4.15;;;8.60;96.50;;;;;;5085620;28;20421;-73
2021/05/05 02:57:27;;;;;;;31.02;4.53;;;8.50;96.70;;;;;;5082091;28;20475;-72
2021/05/05 02:59:53;;;;;;;28.25;4.38;;;8.60;97.10;;;;;;5086122;28;20425;-73
2021/05/05 03:02:19;;;;;;;29.45;4.50;;;8.60;97.30;;;;;;5082447;28;20460;-74
2021/05/05 03:04:47;;;;;;;27.30;4.40;;;8.60;97.70;;;;;;5082474;28;20433;-73
2021/05/05 03:07:13;;;;;;;32.50;5.18;;;8.60;98.00;;;;;;5083896;28;20558;-74
2021/05/05 03:09:39;;;;;;;33.27;5.00;;;8.60;98.40;;;;;;5082429;28;20427;-73
2021/05/05 03:12:07;;;;;;;30.50;4.68;;;8.70;99.00;;;;;;5083256;28;20494;-73
2021/05/05 03:14:33;;;;;;;29.73;4.57;;;8.70;99.20;;;;;;5083361;28;20434;-73
2021/05/05 03:17:00;;;;;;;29.25;4.13;;;8.70;98.70;;;;;;5085870;28;20886;-73
2021/05/05 03:19:27;;;;;;;22.75;3.97;;;8.70;98.00;;;;;;5082270;28;20489;-73
2021/05/05 03:21:55;;;;;;;22.10;4.03;;;8.70;97.30;;;;;;5083336;28;21058;-73
2021/05/05 03:24:22;;;;;;;25.25;3.63;;;8.70;96.70;;;;;;5083801;28;21011;-74
2021/05/05 03:26:48;;;;;;;20.20;3.38;;;8.70;96.50;;;;;;5082351;28;20461;-73
2021/05/05 03:29:16;;;;;;;20.42;3.60;;;8.70;95.90;;;;;;5083402;28;20422;-73
2021/05/05 03:31:43;;;;;;;21.63;3.20;;;8.70;96.00;;;;;;5082459;28;20421;-73
2021/05/05 03:34:09;;;;;;;22.17;3.77;;;8.70;95.70;;;;;;5081849;28;20474;-74
2021/05/05 03:36:36;;;;;;;22.63;3.88;;;8.70;95.60;;;;;;5079508;28;20504;-73
2021/05/05 03:39:05;;;;;;;21.60;3.55;;;8.70;95.90;;;;;;5083464;28;20410;-73
2021/05/05 03:41:31;;;;;;;16.15;2.90;;;8.70;96.20;;;;;;5078026;28;20502;-74
2021/05/05 03:43:58;;;;;;;15.60;3.45;;;8.70;96.00;;;;;;5081118;28;20426;-74
2021/05/05 03:46:24;;;;;;;18.23;3.13;;;8.60;96.20;;;;;;5084603;28;20468;-71
2021/05/05 03:48:52;;;;;;;22.15;3.45;;;8.50;96.60;;;;;;5083242;28;21088;-72
2021/05/05 03:51:18;;;;;;;18.20;3.40;;;8.50;97.10;;;;;;5082439;28;20436;-74
2021/05/05 03:53:45;;;;;;;17.70;3.30;;;8.50;97.40;;;;;;5082997;28;20418;-72
2021/05/05 03:56:12;;;;;;;21.07;4.13;;;8.40;97.50;;;;;;5081012;28;20765;-73
2021/05/05 03:58:39;;;;;;;20.98;3.70;;;8.40;97.40;;;;;;5088496;28;20425;-74
2021/05/05 04:01:06;;;;;;;22.73;3.72;;;8.40;97.10;;;;;;5081952;28;20441;-73
2021/05/05 04:03:32;;;;;;;24.65;4.18;;;8.40;97.30;;;;;;5085542;28;20431;-73
2021/05/05 04:05:59;;;;;;;30.40;4.70;;;8.50;98.70;;;;;;5081690;28;20532;-73
2021/05/05 04:08:25;;;;;;;30.20;4.83;;;8.40;99.90;;;;;;5085079;28;20463;-73
2021/05/05 04:10:51;;;;;;;31.17;5.45;;;8.30;99.90;;;;;;5080661;28;20794;-73
2021/05/05 04:13:19;;;;;;;33.25;5.22;;;8.20;99.90;;;;;;5084526;28;20470;-75
2021/05/05 04:15:45;;;;;;;32.25;5.50;;;8.10;99.90;;;;;;5080466;28;20425;-72
2021/05/05 04:18:11;;;;;;;31.05;4.70;;;8.00;99.90;;;;;;5083651;28;20467;-73
2021/05/05 04:20:38;;;;;;;32.05;4.32;;;8.00;99.90;;;;;;5082489;28;20952;-73
2021/05/05 04:23:05;;;;;;;26.23;4.28;;;8.00;99.90;;;;;;5083811;28;20422;-73
2021/05/05 04:25:31;;;;;;;18.67;3.83;;;8.00;99.90;;;;;;5076868;28;20419;-75
2021/05/05 04:27:57;;;;;;;23.03;3.83;;;7.90;99.90;;;;;;5081646;28;20428;-74
2021/05/05 04:30:25;;;;;;;27.05;3.80;;;7.90;99.90;;;;;;5083502;28;20426;-74
2021/05/05 04:32:52;;;;;;;24.67;3.85;;;7.80;99.90;;;;;;5084037;28;20918;-72
2021/05/05 04:35:20;;;;;;;24.00;3.78;;;7.80;99.90;;;;;;5081599;28;20427;-73
2021/05/05 04:37:47;;;;;;;29.48;4.00;;;7.80;99.60;;;;;;5082813;28;20759;-73
2021/05/05 04:40:13;;;;;;;23.10;4.00;;;7.80;99.20;;;;;;5082327;28;20429;-74
2021/05/05 04:42:40;;;;;;;26.55;3.78;;;7.80;99.30;;;;;;5085603;28;20418;-73
2021/05/05 04:45:09;;;;;;;29.92;4.43;;;7.80;99.20;;;;;;5081816;28;20426;-73
2021/05/05 04:47:38;;;;;;;25.27;4.22;;;7.80;99.10;;;;;;5083796;28;20427;-74
2021/05/05 04:50:05;;;;;;;28.77;4.28;;;7.90;99.20;;;;;;5077082;28;20791;-73
2021/05/05 04:52:32;;;;;;;24.33;3.88;;;8.00;99.00;;;;;;5081856;28;20423;-73
2021/05/05 04:54:58;;;;;;;25.83;4.00;;;8.00;98.60;;;;;;5080405;28;20484;-73
2021/05/05 04:57:24;;;;;;;25.40;4.23;;;8.10;98.40;;;;;;5080895;28;20479;-73
2021/05/05 04:59:51;;;;;;;25.10;3.83;;;8.10;98.00;;;;;;5084786;28;20417;-75
2021/05/05 05:02:17;;;;;;;22.38;3.75;;;8.10;97.60;;;;;;5082166;28;20422;-74
2021/05/05 05:04:45;;;;;;;15.38;2.92;;;8.10;97.20;;;;;;5084056;28;20798;-73
2021/05/05 05:07:11;;;;;;;19.13;3.28;;;8.20;96.80;;;;;;5088205;28;20418;-73
2021/05/05 05:09:37;;;;;;;20.15;2.90;;;8.20;96.50;;;;;;5088081;28;20488;-74
2021/05/05 05:12:05;;;;;;;20.50;3.10;;;8.20;96.60;;;;;;5089112;28;20424;-73
2021/05/05 05:14:31;;;;;;;15.18;3.13;;;8.30;96.60;;;;;;5087344;28;20525;-74
2021/05/05 05:16:58;;;;;;;18.92;3.10;;;8.30;96.80;;;;;;5089138;28;20443;-73
2021/05/05 05:19:24;;;;;;;19.50;3.35;;;8.30;96.80;;;;;;5086833;28;20421;-72
2021/05/05 05:21:52;;;;;;;15.05;3.10;;;8.40;97.10;;;;;;5087041;28;20409;-71
2021/05/05 05:24:18;;;;;;;18.85;3.10;;;8.40;97.40;;;;;;5085189;28;20428;-72
2021/05/05 05:26:45;;;;;;;20.40;3.00;;;8.30;97.50;;;;;;5086558;28;20984;-73
2021/05/05 05:29:12;;;;;;;19.45;3.10;;;8.40;97.80;;;;;;5085998;28;20467;-70
2021/05/05 05:31:39;;;;;;;18.05;2.65;;;8.30;97.60;;;;;;5085800;28;20777;-71
2021/05/05 05:34:05;;;;;;;16.45;2.80;;;8.30;97.80;;;;;;5084490;28;20995;-71
2021/05/05 05:36:32;;;;;;;26.58;3.00;;;8.30;97.60;;;;;;5082701;28;20494;-71
2021/05/05 05:38:59;;;;;;;16.98;2.90;;;8.30;98.00;;;;;;5085594;28;20812;-72
2021/05/05 05:41:27;;;;;;;19.83;3.17;;;8.30;98.40;;;;;;5084601;28;20520;-71
2021/05/05 05:43:53;;;;;;;16.20;2.90;;;8.30;98.50;;;;;;5081570;28;20431;-70
2021/05/05 05:46:20;;;;;;;23.42;3.47;;;8.30;98.80;;;;;;5086214;28;20487;-71
2021/05/05 05:48:46;;;;;;;17.75;2.80;;;8.40;98.90;;;;;;5083863;28;21419;-72
2021/05/05 05:51:13;;;;;;;13.95;2.42;;;8.40;98.40;;;;;;5087536;28;20421;-74
2021/05/05 05:53:39;;;;;;;15.07;2.55;;;8.50;97.90;;;;;;5083537;28;20425;-73
2021/05/05 05:56:07;;;;;;;14.03;2.50;;;8.50;97.20;;;;;;5081645;28;20421;-73
2021/05/05 05:58:33;;;;;;;11.80;2.05;;;8.50;97.30;;;;;;5082707;28;20433;-72
2021/05/05 06:01:00;;;;;;;11.10;1.95;;;8.50;97.90;;;;;;5082608;28;20431;-74
2021/05/05 06:03:27;;;;;;;13.27;2.63;;;8.40;98.70;;;;;;5086316;28;20420;-73
2021/05/05 06:05:53;;;;;;;16.33;2.70;;;8.30;99.90;;;;;;5082390;28;20421;-72
2021/05/05 06:08:20;;;;;;;17.17;2.60;;;8.20;99.90;;;;;;5085655;28;20417;-74
2021/05/05 06:10:47;;;;;;;16.85;2.70;;;8.00;99.90;;;;;;5084773;28;20417;-73
2021/05/05 06:13:14;;;;;;;22.10;3.13;;;8.00;99.90;;;;;;5087218;28;20902;-72
2021/05/05 06:15:41;;;;;;;14.93;2.50;;;8.00;99.90;;;;;;5079141;28;20491;-74
2021/05/05 06:18:07;;;;;;;19.27;2.80;;;8.00;99.90;;;;;;5085510;28;20801;-74
2021/05/05 06:20:34;;;;;;;17.35;2.75;;;8.00;99.90;;;;;;5083860;28;20827;-72
2021/05/05 06:23:00;;;;;;;17.73;2.83;;;8.10;99.90;;;;;;5086093;28;20917;-71
2021/05/05 06:25:27;;;;;;;16.52;2.55;;;8.10;99.90;;;;;;5088303;28;20779;-72
2021/05/05 06:27:53;;;;;;;11.32;2.17;;;8.20;99.90;;;;;;5088071;28;20418;-73
2021/05/05 06:30:22;;;;;;;12.35;2.08;;;8.20;99.90;;;;;;5088632;28;20971;-73
2021/05/05 06:32:49;;;;;;;15.52;2.30;;;8.10;99.90;;;;;;5089091;28;20890;-74
2021/05/05 06:35:15;;;;;;;15.43;2.55;;;8.00;99.90;;;;;;5088642;28;20801;-72
2021/05/05 06:37:42;;;;;;;17.00;2.90;;;7.90;99.90;;;;;;5086312;28;20810;-74
2021/05/05 06:40:10;;;;;;;17.40;2.55;;;7.80;99.90;;;;;;5088863;28;20414;-74
2021/05/05 06:42:36;;;;;;;12.30;2.00;;;7.80;99.90;;;;;;5089129;28;20422;-73
2021/05/05 06:45:04;;;;;;;13.27;2.20;;;7.80;99.90;;;;;;5090095;28;20421;-74
2021/05/05 06:47:32;;;;;;;11.70;2.10;;;7.70;99.90;;;;;;5087613;28;20471;-74
2021/05/05 06:49:58;;;;;;;10.88;2.42;;;7.60;99.90;;;;;;5088796;28;20413;-74
2021/05/05 06:52:25;;;;;;;19.17;2.90;;;7.60;99.90;;;;;;5088460;28;20546;-74
2021/05/05 06:54:51;;;;;;;24.20;3.37;;;7.60;99.90;;;;;;5089687;28;20524;-75
2021/05/05 06:57:18;;;;;;;21.05;3.70;;;7.50;99.90;;;;;;5089551;28;20414;-75
2021/05/05 06:59:44;;;;;;;19.63;3.20;;;7.50;99.90;;;;;;5087600;28;20944;-74
2021/05/05 07:02:10;;;;;;;16.02;3.03;;;7.50;99.90;;;;;;5088670;28;20551;-75
2021/05/05 07:04:38;;;;;;;17.83;2.17;;;7.60;99.90;;;;;;5086780;28;20425;-74
2021/05/05 07:07:04;;;;;;;15.53;2.27;;;7.70;99.90;;;;;;5088796;28;20787;-74
2021/05/05 07:09:31;;;;;;;15.10;2.30;;;7.70;99.90;;;;;;5088297;28;20410;-73
2021/05/05 07:11:57;;;;;;;21.92;3.10;;;7.80;99.90;;;;;;5088523;28;20457;-75
2021/05/05 07:14:23;;;;;;;17.73;3.10;;;7.90;99.90;;;;;;5088725;28;20897;-75
2021/05/05 07:16:50;;;;;;;22.63;3.80;;;8.00;99.90;;;;;;5086931;28;20838;-72
2021/05/05 07:19:17;;;;;;;19.77;3.17;;;8.10;99.90;;;;;;5089024;28;20421;-72
2021/05/05 07:21:44;;;;;;;16.67;3.03;;;8.20;99.90;;;;;;5086402;28;20448;-72
2021/05/05 07:24:11;;;;;;;20.40;3.50;;;8.30;99.90;;;;;;5089372;28;20451;-71
2021/05/05 07:26:38;;;;;;;21.77;3.53;;;8.40;99.90;;;;;;5088365;28;21125;-74
2021/05/05 07:29:05;;;;;;;22.42;3.70;;;8.50;99.90;;;;;;5089003;28;20459;-74
2021/05/05 07:31:31;;;;;;;20.95;3.22;;;8.60;99.90;;;;;;5087604;28;20412;-71
2021/05/05 07:33:58;;;;;;;22.70;4.17;;;8.70;99.90;;;;;;5086034;28;20756;-73
2021/05/05 07:36:26;;;;;;;22.42;3.65;;;8.70;99.90;;;;;;5086419;28;20448;-71
2021/05/05 07:39:15;;;;;;;22.75;3.97;;;8.80;99.90;;;;;;5085774;28;20419;-72
2021/05/05 07:44:52;;;;;;;18.10;2.97;;;8.70;99.90;;;;;;5088894;28;20965;-71
2021/05/05 07:47:21;;;;;;;14.70;2.75;;;8.70;99.90;;;;;;5087628;28;20789;-76
2021/05/05 07:49:49;;;;;;;14.52;2.58;;;8.70;99.90;;;;;;5086762;28;20528;-72
2021/05/05 07:52:16;;;;;;;20.50;2.60;;;8.60;99.90;;;;;;5086338;28;20817;-71
2021/05/05 07:54:43;;;;;;;22.07;3.10;;;8.60;99.90;;;;;;5088662;28;20428;-73
2021/05/05 07:57:10;;;;;;;21.65;3.47;;;8.60;99.90;;;;;;5087642;28;20418;-72
2021/05/05 07:59:36;;;;;;;17.55;2.92;;;8.70;99.90;;;;;;5087281;28;20485;-75
2021/05/05 08:02:04;;;;;;;17.92;2.47;;;8.80;99.90;;;;;;5087523;28;20418;-72
2021/05/05 08:04:30;;;;;;;18.05;3.00;;;8.70;99.90;;;;;;5088080;28;20420;-71
2021/05/05 08:06:57;;;;;;;16.63;3.00;;;8.60;99.90;;;;;;5087290;28;20484;-73
2021/05/05 08:09:24;;;;;;;21.33;3.65;;;8.50;99.90;;;;;;5089266;28;20417;-72
2021/05/05 08:11:52;;;;;;;21.38;3.58;;;8.40;99.90;;;;;;5087162;28;21082;-72
2021/05/05 08:14:18;;;;;;;24.75;3.78;;;8.30;99.90;;;;;;5087608;28;20409;-73
2021/05/05 08:16:45;;;;;;;15.98;2.90;;;8.30;99.90;;;;;;5084665;28;20423;-71
2021/05/05 08:19:12;;;;;;;26.08;3.60;;;8.30;99.90;;;;;;5084440;28;20422;-72
2021/05/05 08:21:38;;;;;;;20.77;2.92;;;8.30;99.90;;;;;;5082762;28;20422;-71
2021/05/05 08:24:06;;;;;;;16.95;3.22;;;8.30;99.90;;;;;;5083961;28;20791;-73
2021/05/05 08:26:32;;;;;;;22.55;3.33;;;8.40;99.90;;;;;;5082229;28;20425;-72
2021/05/05 08:28:59;;;;;;;25.38;3.53;;;8.50;99.90;;;;;;5083477;28;20427;-72
2021/05/05 08:31:26;;;;;;;24.92;3.92;;;8.60;99.90;;;;;;5083304;28;20417;-71
2021/05/05 08:33:52;;;;;;;20.55;3.80;;;8.60;99.90;;;;;;5080160;28;20895;-71
2021/05/05 08:36:19;;;;;;;25.70;3.90;;;8.70;99.90;;;;;;5081854;28;20497;-71
2021/05/05 08:38:45;;;;;;;28.80;4.10;;;8.70;99.90;;;;;;5079418;28;20458;-71
2021/05/05 08:41:12;;;;;;;22.88;3.63;;;8.70;99.90;;;;;;5084776;28;20481;-74
2021/05/05 08:43:40;;;;;;;28.67;4.20;;;8.70;99.90;;;;;;5087309;28;20478;-71
2021/05/05 08:46:08;;;;;;;25.43;4.13;;;8.80;99.90;;;;;;5084275;28;20417;-73
2021/05/05 08:48:36;;;;;;;31.50;4.35;;;8.90;99.90;;;;;;5086615;28;20463;-72
2021/05/05 08:51:03;;;;;;;28.77;4.07;;;9.00;99.90;;;;;;5086242;28;20442;-73
2021/05/05 08:53:30;;;;;;;33.40;4.25;;;9.10;99.90;;;;;;5085955;28;20414;-73
2021/05/05 08:55:56;;;;;;;30.48;4.53;;;9.20;99.90;;;;;;5085400;28;20421;-71
2021/05/05 08:58:23;;;;;;;25.05;4.15;;;9.30;99.90;;;;;;5086487;28;20425;-78
2021/05/05 09:00:49;;;;;;;20.98;3.70;;;9.40;99.90;;;;;;5086290;28;20417;-73
2021/05/05 09:03:16;;;;;;;18.90;3.28;;;9.50;99.10;;;;;;5088280;28;20422;-71
2021/05/05 09:05:52;;;;;;;21.45;3.53;;;9.50;97.30;;;;;;5081738;28;20429;-72
2021/05/05 09:08:20;;;;;;;20.20;3.28;;;9.60;97.20;;;;;;5086016;28;20447;-72
2021/05/05 09:11:08;;;;;;;19.10;2.90;;;9.60;96.40;;;;;;5087231;28;20198;-72
2021/05/05 09:13:52;;;;;;;19.70;3.08;;;9.30;97.10;;;;;;5081443;28;20302;-72
2021/05/05 09:16:22;;;;;;;18.83;3.08;;;9.20;97.80;;;;;;5080793;28;20198;-73
2021/05/05 09:18:58;;;;;;;20.58;2.95;;;9.10;98.10;;;;;;5089226;28;20214;-71
2021/05/05 09:21:30;;;;;;;24.77;3.28;;;9.10;98.30;;;;;;5085329;28;20213;-72
2021/05/05 09:24:21;;;;;;;19.35;3.60;;;9.10;98.40;;;;;;5086797;28;20214;-71
2021/05/05 09:26:49;;;;;;;20.23;3.03;;;9.10;98.30;;;;;;5084936;28;20208;-71
2021/05/05 09:29:16;;;;;;;22.88;3.00;;;9.10;98.40;;;;;;5084461;28;20210;-73
2021/05/05 09:31:44;;;;;;;23.35;3.70;;;9.10;98.40;;;;;;5089940;28;20217;-71
2021/05/05 09:34:12;;;;;;;25.92;3.20;;;9.10;98.40;;;;;;5088063;28;20216;-72
2021/05/05 09:36:40;;;;;;;23.52;3.17;;;9.20;98.50;;;;;;5086197;28;20210;-72
2021/05/05 09:39:08;;;;;;;24.95;3.20;;;9.20;98.40;;;;;;5087225;28;20262;-71
2021/05/05 09:41:37;;;;;;;26.15;3.67;;;9.20;98.30;;;;;;5087883;28;20216;-72
2021/05/05 09:44:05;;;;;;;21.80;3.15;;;9.30;98.10;;;;;;5086303;28;20202;-71
2021/05/05 09:46:41;;;;;;;20.10;3.05;;;9.30;98.10;;;;;;5087113;28;20206;-71
2021/05/05 09:49:20;;;;;;;16.25;3.10;;;9.30;98.00;;;;;;5087588;28;20193;-73
2021/05/05 09:51:49;;;;;;;20.40;3.42;;;9.30;98.00;;;;;;5087720;28;20258;-72
2021/05/05 09:54:28;;;;;;;21.98;3.15;;;9.40;97.90;;;;;;5084538;28;20198;-70
2021/05/05 09:56:55;;;;;;;21.95;3.50;;;9.40;97.80;;;;;;5087088;28;20237;-71
2021/05/05 09:59:22;;;;;;;18.67;3.20;;;9.50;97.80;;;;;;5083927;28;20222;-73
2021/05/05 10:02:02;;;;;;;21.95;3.45;;;9.50;97.80;;;;;;5086387;28;20339;-74
2021/05/05 10:04:31;;;;;;;28.60;3.75;;;9.60;97.80;;;;;;5086990;28;20214;-71
2021/05/05 10:07:00;;;;;;;34.00;4.43;;;9.60;97.70;;;;;;5086855;28;20239;-71
2021/05/05 10:09:27;;;;;;;24.38;4.28;;;9.70;97.70;;;;;;5086680;28;20617;-72
2021/05/05 10:11:54;;;;;;;23.45;3.85;;;9.80;97.50;;;;;;5088374;28;20261;-72
2021/05/05 10:14:22;;;;;;;25.42;3.78;;;9.80;97.20;;;;;;5086668;28;20241;-76
2021/05/05 10:16:49;;;;;;;27.55;3.83;;;9.80;97.00;;;;;;5086957;28;20551;-73
2021/05/05 10:19:18;;;;;;;19.48;3.33;;;9.90;96.90;;;;;;5085411;28;20243;-72
2021/05/05 10:21:52;;;;;;;28.55;3.63;;;9.90;96.60;;;;;;5087863;28;20224;-72
2021/05/05 10:24:21;;;;;;;21.77;3.63;;;9.90;96.30;;;;;;5087675;28;20202;-76
2021/05/05 10:26:47;;;;;;;25.45;4.00;;;9.80;96.00;;;;;;5087486;28;20255;-74
2021/05/05 10:29:15;;;;;;;29.00;3.75;;;9.80;96.00;;;;;;5087306;28;20206;-73
2021/05/05 10:31:42;;;;;;;25.20;3.95;;;9.80;96.00;;;;;;5086220;28;20657;-73
2021/05/05 10:34:16;;;;;;;21.50;3.25;;;9.90;96.00;;;;;;5083415;28;20305;-72
2021/05/05 10:36:49;;;;;;;23.50;3.20;;;9.90;96.00;;;;;;5084372;28;20194;-73
2021/05/05 10:39:48;;;;;;;20.88;3.60;;;10.00;95.90;;;;;;5085422;28;20210;-73
2021/05/05 10:42:18;;;;;;;22.05;3.60;;;10.10;95.70;;;;;;5045538;28;20214;-73
2021/05/05 10:44:48;;;;;;;17.83;3.17;;;10.10;95.50;;;;;;5042511;28;20204;-73
2021/05/05 10:47:31;;;;;;;19.70;3.78;;;10.10;95.20;;;;;;5055897;28;20208;-73
2021/05/05 10:50:16;;;;;;;26.17;3.60;;;10.20;95.10;;;;;;5082954;28;20213;-74
2021/05/05 10:53:03;;;;;;;19.65;3.55;;;10.20;95.00;;;;;;5086594;28;20285;-73
2021/05/05 10:55:53;;;;;;;22.42;3.47;;;10.30;94.80;;;;;;5085460;28;20274;-74
2021/05/05 10:58:24;;;;;;;28.17;3.22;;;10.30;94.40;;;;;;5086583;28;20222;-73
2021/05/05 11:00:55;;;;;;;26.70;4.00;;;10.30;94.20;;;;;;5083781;28;20214;-73
2021/05/05 11:04:03;;;;;;;20.50;2.90;;;10.30;93.90;;;;;;5086637;28;20665;-71
2021/05/05 11:06:54;;;;;;;29.70;4.07;;;10.30;93.70;;;;;;5083103;28;20292;-72
2021/05/05 11:09:49;;;;;;;25.17;3.72;;;10.10;93.70;;;;;;5084973;28;20234;-72
2021/05/05 11:12:42;;;;;;;26.77;4.10;;;10.00;94.30;;;;;;5084597;28;20209;-72
2021/05/05 11:15:10;;;;;;;21.00;3.20;;;9.90;94.60;;;;;;5058362;28;20210;-71
2021/05/05 11:17:36;;;;;;;23.42;3.63;;;10.00;94.90;;;;;;5086172;28;20544;-70
2021/05/05 11:20:04;;;;;;;16.38;3.47;;;10.00;94.80;;;;;;5083207;28;20569;-72
2021/05/05 11:22:48;;;;;;;21.75;3.30;;;10.00;94.70;;;;;;5086587;28;20666;-72
2021/05/05 11:25:37;;;;;;;25.63;3.70;;;10.10;94.60;;;;;;5083609;28;20229;-72
2021/05/05 11:28:04;;;;;;;30.10;4.15;;;10.20;94.30;;;;;;5083599;28;20228;-74
2021/05/05 11:30:32;;;;;;;20.90;3.60;;;10.30;94.30;;;;;;5084545;28;20206;-71
2021/05/05 11:32:59;;;;;;;21.63;3.53;;;10.40;93.90;;;;;;5086507;28;20206;-73
2021/05/05 11:35:26;;;;;;;16.75;3.50;;;10.50;93.40;;;;;;5085427;28;20205;-72
2021/05/05 11:38:07;;;;;;;21.40;3.50;;;10.60;93.40;;;;;;5085886;28;20598;-73
2021/05/05 11:40:34;;;;;;;21.30;3.80;;;10.80;93.10;;;;;;5084903;28;21633;-74
2021/05/05 11:43:16;;;;;;;21.67;3.03;;;10.80;92.90;;;;;;5086712;28;20190;-72
2021/05/05 11:45:47;;;;;;;16.05;3.75;;;10.70;92.70;;;;;;5084451;28;20202;-70
2021/05/05 11:48:23;;;;;;;21.33;3.00;;;10.50;92.60;;;;;;5084480;28;20276;-72
2021/05/05 11:50:50;;;;;;;16.55;3.20;;;10.40;92.80;;;;;;5086461;28;20209;-72
2021/05/05 11:53:28;;;;;;;16.00;2.72;;;10.30;92.80;;;;;;5084939;28;20201;-70
2021/05/05 11:55:55;;;;;;;24.15;3.92;;;10.30;92.80;;;;;;5082573;28;20197;-74
2021/05/05 11:58:24;;;;;;;16.55;2.75;;;10.30;92.80;;;;;;5081466;28;20625;-74
2021/05/05 12:00:51;;;;;;;14.35;2.55;;;10.30;92.70;;;;;;5084228;28;20205;-73
2021/05/05 12:03:23;;;;;;;19.40;3.05;;;10.40;92.60;;;;;;5082629;28;20198;-70
2021/05/05 12:05:49;;;;;;;19.42;2.60;;;10.40;92.60;;;;;;5117673;28;20234;-70
2021/05/05 12:08:17;;;;;;;18.02;2.97;;;10.50;92.60;;;;;;5084313;28;20198;-70
2021/05/05 12:10:46;;;;;;;20.50;3.40;;;10.60;92.90;;;;;;5082128;28;20547;-72
2021/05/05 12:13:14;;;;;;;20.45;3.33;;;10.70;92.50;;;;;;5083243;28;20200;-72
2021/05/05 12:15:49;;;;;;;20.92;3.35;;;10.70;92.50;;;;;;5088003;28;20206;-72
2021/05/05 12:18:18;;;;;;;18.17;3.42;;;10.80;92.80;;;;;;5085386;28;20252;-71
2021/05/05 12:20:45;;;;;;;11.02;2.45;;;11.00;92.70;;;;;;5087785;28;20206;-75
2021/05/05 12:23:12;;;;;;;18.40;3.10;;;11.00;92.10;;;;;;5089616;28;20194;-68
2021/05/05 12:25:38;;;;;;;17.10;3.03;;;11.00;91.70;;;;;;5089354;28;20207;-75
2021/05/05 12:28:15;;;;;;;16.45;2.83;;;10.90;91.50;;;;;;5088323;28;20202;-70
2021/05/05 12:30:52;;;;;;;17.30;3.05;;;10.70;91.30;;;;;;5087257;28;20645;-70
2021/05/05 12:33:36;;;;;;;17.17;3.08;;;10.60;91.30;;;;;;5086734;28;20202;-72
2021/05/05 12:36:05;;;;;;;19.17;3.38;;;10.50;91.20;;;;;;5088289;28;20209;-73
2021/05/05 12:38:36;;;;;;;24.50;3.70;;;10.40;91.30;;;;;;5087619;28;20613;-72
2021/05/05 12:41:04;;;;;;;19.65;3.90;;;10.40;91.50;;;;;;5086490;28;20205;-70
2021/05/05 12:43:31;;;;;;;24.35;3.47;;;10.40;92.00;;;;;;5088529;28;20676;-70
2021/05/05 12:45:59;;;;;;;27.10;3.90;;;10.50;92.30;;;;;;5089089;28;20879;-71
2021/05/05 12:48:33;;;;;;;21.50;4.03;;;10.70;92.50;;;;;;5090931;28;20236;-70
2021/05/05 12:51:09;;;;;;;18.40;3.22;;;10.70;92.20;;;;;;5088550;28;20246;-70
2021/05/05 12:53:54;;;;;;;26.65;3.70;;;10.90;92.00;;;;;;5088632;28;20205;-70
2021/05/05 12:56:35;;;;;;;23.88;3.85;;;11.10;91.70;;;;;;5088956;28;20653;-70
2021/05/05 12:59:02;;;;;;;19.48;3.38;;;11.20;91.30;;;;;;5088986;28;20221;-70